Main page
METAR-TAF:

METAR-TAF

Airports :

Najran Domestic Airport

Najran, Saudi Arabia

latitude: 17-37N, longitude: 044-25E, elevation: 1212 m

Current weather observation

The report was made 1 hour and 11 minutes ago, at 03:00 UTC
Calm wind
Temperature 20°C
Humidity 26%
Pressure 1016 hPa
Visibility 10 km or more
no clouds below 1500 m and no cumulonimbus

METAR: OENG 260300Z 00000KT CAVOK 20/00 Q1016 NOSIG

Time: 07:11 (04:11 UTC)

Forecast

The report was made 5 hours and 11 minutes ago, at 23:00 UTC
Forecast valid from 26 at 00 UTC to 27 at 06 UTC
Wind 10 kt from the West
Visibility 10 km or more
no clouds below 1500 m and no cumulonimbus
Becoming
from 26 at 06 UTC to 26 at 08 UTC
Wind 16 kt from the Northeast
Probability 30% :
Temporary
from 26 at 10 UTC to 26 at 16 UTC
Visibility: 4000 m
Blowing dust
Becoming
from 26 at 18 UTC to 26 at 20 UTC
Wind 14 kt from the North
Visibility: 7000 m

TAF: OENG 252300Z 2600/2706 27010KT CAVOK BECMG 2606/2608 04016KT PROB30 TEMPO 2610/2616 4000 BLDU BECMG 2618/2620 36014KT 7000 NSC

Weather observations and forecasts of more than 4000 airports (METAR and TAF reports).

The available stations are represented by yellow and red dots on the map.

Hover mouse over dot to see the name of the station.

Then click to see weather observations and forecasts.

To change the map : click on the green buttons with a black cross to zoom in, on the green button with a dash to zoom out, or on the green arrows for adjacent maps.


METAR-TAF: